Aviation Digital Data Service (ADDS)

Output produced by METARs form (0647 UTC 23 April 2014)
found at http://aviationweather.gov/adds/metars/
 
KINT 230520Z 2306/2406 29009KT P6SM SKC 
     FM231400 32012G20KT P6SM SKC 
     FM232300 35005KT P6SM SKC